Forside
METAR-TAF:

METAR-TAF

Lufthavne :

Bullsbrook, Australien

Breddekreds: 31-40S, længdekreds: 116-01E, højde: 45 m

Aktuelle vejr

Denne rapport blev lavet for 44 minutter siden, kl. 00:00 UTC
Vind 8 kt fra nordnordvest
Temperatur 16°C
Fugtighed 72%
Tryk 1021 hPa
Sigt 10 km eller mere
Spredte skyer i en højde af 3900 ft

METAR: YPEA 200000Z AUTO 34008KT 9999 // SCT039 16/11 Q1021

Tid: 08:44 (00:44 UTC)

Vejrudsigter

Denne rapport blev lavet for 2 timer og 1 minutter siden, kl. 22:43 UTC
Foreløbig gælder fra 20 på 00 UTC til 20 på 18 UTC
Vind 3 kt fra nord
Sigt 10 km eller mere
Brudte skyer i en højde af 4000 ft
Fra 20 på 0100 UTC
Vind 12 kt fra vestnordvest
Sigt 10 km eller mere
Spredte skyer i en højde af 3500 ft
Brudte skyer i en højde af 4500 ft

TAF: YPEA 192243Z 2000/2018 36003KT 9999 BKN040 FM200100 30012KT 9999 SCT035 BKN045

Vejrobservationer og prognoser fra mere end 4000 lufthavne (METAR og TAF).

De gule og røde prikker repræsenterer de meteorologiske stationer.

Flyt musen over at se navnet på stationen.

Så klik over at se vejr observationer og prognoser.

At skifte det kort: Klik på de grønne knapper med et sort kors for at zoome ind; på den grønne knap med en bindestreg for at zoome ud; eller på de grønne pile for tilstødende kort.


METAR-TAF: